createdAt,value
2018-10-09T00:00:18.862Z,20.26
2018-10-09T00:01:18.816Z,20.23
2018-10-09T00:02:18.769Z,20.21
2018-10-09T00:03:18.722Z,20.21
2018-10-09T00:04:18.675Z,20.24
2018-10-09T00:05:18.629Z,20.26
2018-10-09T00:06:18.582Z,20.23
2018-10-09T00:07:18.535Z,20.23
2018-10-09T00:08:18.489Z,20.23
2018-10-09T00:09:18.443Z,20.29
2018-10-09T00:10:18.396Z,20.18
2018-10-09T00:11:18.349Z,20.31
2018-10-09T00:12:18.302Z,20.26
2018-10-09T00:13:18.257Z,20.21
2018-10-09T00:14:18.210Z,20.23
2018-10-09T00:15:18.165Z,20.18
2018-10-09T00:16:18.125Z,20.21
2018-10-09T00:17:18.070Z,20.23
2018-10-09T00:18:18.024Z,20.28
2018-10-09T00:19:17.976Z,20.24
2018-10-09T00:20:17.930Z,20.24
2018-10-09T00:21:17.884Z,20.31
2018-10-09T00:22:17.837Z,20.26
2018-10-09T00:23:17.793Z,20.16
2018-10-09T00:24:17.744Z,20.29
2018-10-09T00:25:17.747Z,20.20
2018-10-09T00:26:17.651Z,20.21
2018-10-09T00:27:17.604Z,20.18
2018-10-09T00:28:17.561Z,20.24
2018-10-09T00:29:17.511Z,20.28
2018-10-09T00:30:17.464Z,20.26
2018-10-09T00:31:17.417Z,20.21
2018-10-09T00:32:17.370Z,20.21
2018-10-09T00:33:17.328Z,20.21
2018-10-09T00:34:17.278Z,20.26
2018-10-09T00:35:17.231Z,20.18
2018-10-09T00:36:17.191Z,20.17
2018-10-09T00:37:17.138Z,20.28
2018-10-09T00:38:17.092Z,20.20
2018-10-09T00:39:17.044Z,20.29
2018-10-09T00:40:16.998Z,20.18
2018-10-09T00:41:16.954Z,20.21
2018-10-09T00:42:16.905Z,20.23
2018-10-09T00:43:16.857Z,20.20
2018-10-09T00:44:16.811Z,20.28
2018-10-09T00:45:16.768Z,20.31
2018-10-09T00:46:16.719Z,20.18
2018-10-09T00:47:16.672Z,20.16
2018-10-09T00:48:16.626Z,20.23
2018-10-09T00:49:16.579Z,20.17
2018-10-09T00:50:16.533Z,20.20
2018-10-09T00:51:16.485Z,20.18
2018-10-09T00:52:16.439Z,20.14
2018-10-09T00:53:16.396Z,20.17
2018-10-09T00:54:16.347Z,20.20
2018-10-09T00:55:16.299Z,20.14
2018-10-09T00:56:16.252Z,20.14
2018-10-09T00:57:16.257Z,20.16
2018-10-09T00:58:16.160Z,20.23
2018-10-09T00:59:16.114Z,20.18
2018-10-09T01:00:16.069Z,20.17
2018-10-09T01:01:16.021Z,20.18
2018-10-09T01:02:15.974Z,20.16
2018-10-09T01:03:15.926Z,20.20
2018-10-09T01:04:15.881Z,20.17
2018-10-09T01:05:15.835Z,20.17
2018-10-09T01:06:15.788Z,20.17
2018-10-09T01:07:15.741Z,20.17
2018-10-09T01:08:15.695Z,20.18
2018-10-09T01:09:15.727Z,20.17
2018-10-09T01:10:15.602Z,20.17
2018-10-09T01:11:15.554Z,20.18
2018-10-09T01:12:15.824Z,20.17
2018-10-09T01:13:15.778Z,20.14
2018-10-09T01:14:15.416Z,20.14
2018-10-09T01:15:15.368Z,20.20
2018-10-09T01:16:15.321Z,20.17
2018-10-09T01:17:15.275Z,20.21
2018-10-09T01:18:15.229Z,20.20
2018-10-09T01:19:15.185Z,20.18
2018-10-09T01:20:15.136Z,20.16
2018-10-09T01:21:15.090Z,20.18
2018-10-09T01:22:15.043Z,20.17
2018-10-09T01:23:14.996Z,20.13
2018-10-09T01:24:14.950Z,20.21
2018-10-09T01:25:14.903Z,20.14
2018-10-09T01:26:14.857Z,20.16
2018-10-09T01:27:14.810Z,20.17
2018-10-09T01:28:14.766Z,20.20
2018-10-09T01:29:14.717Z,20.17
2018-10-09T01:30:14.674Z,20.14
2018-10-09T01:31:14.623Z,20.17
2018-10-09T01:32:14.577Z,20.17
2018-10-09T01:33:14.531Z,20.14
2018-10-09T01:34:14.484Z,20.20
2018-10-09T01:35:14.437Z,20.20
2018-10-09T01:36:14.390Z,20.13
2018-10-09T01:37:14.345Z,20.18
2018-10-09T01:38:14.349Z,20.18
2018-10-09T01:39:14.251Z,20.18
2018-10-09T01:40:14.204Z,20.21
2018-10-09T01:41:14.159Z,20.17
2018-10-09T01:42:14.112Z,20.21
2018-10-09T01:43:14.064Z,20.17
2018-10-09T01:44:14.018Z,20.17
2018-10-09T01:45:13.972Z,20.14
2018-10-09T01:46:13.925Z,20.20
2018-10-09T01:47:13.878Z,20.20
2018-10-09T01:48:13.831Z,20.18
2018-10-09T01:49:13.787Z,20.16
2018-10-09T01:50:13.739Z,20.14
2018-10-09T01:51:13.691Z,20.14
2018-10-09T01:52:13.644Z,20.14
2018-10-09T01:53:13.599Z,20.14
2018-10-09T01:54:13.552Z,20.18
2018-10-09T01:55:13.513Z,20.16
2018-10-09T01:56:13.459Z,20.18
2018-10-09T01:57:13.412Z,20.17
2018-10-09T01:58:13.366Z,20.20
2018-10-09T01:59:13.318Z,20.20
2018-10-09T02:00:13.272Z,20.18
2018-10-09T02:01:13.227Z,20.17
2018-10-09T02:02:13.181Z,20.17
2018-10-09T02:03:13.132Z,20.17
2018-10-09T02:04:13.086Z,20.18
2018-10-09T02:05:13.039Z,20.17
2018-10-09T02:06:12.993Z,20.17
2018-10-09T02:07:12.996Z,20.17
2018-10-09T02:08:12.899Z,20.17
2018-10-09T02:09:12.856Z,20.18
2018-10-09T02:10:12.808Z,20.18
2018-10-09T02:11:12.759Z,20.24
2018-10-09T02:12:12.712Z,20.18
2018-10-09T02:13:12.666Z,20.11
2018-10-09T02:14:12.620Z,20.20
2018-10-09T02:15:12.576Z,20.17
2018-10-09T02:16:12.526Z,20.17
2018-10-09T02:17:12.480Z,20.16
2018-10-09T02:18:12.434Z,20.17
2018-10-09T02:19:12.386Z,20.17
2018-10-09T02:20:12.341Z,20.17
2018-10-09T02:21:12.297Z,20.21
2018-10-09T02:22:12.247Z,20.16
2018-10-09T02:23:12.201Z,20.14
2018-10-09T02:24:12.153Z,20.21
2018-10-09T02:25:12.107Z,20.16
2018-10-09T02:26:12.060Z,20.16
2018-10-09T02:27:12.013Z,20.17
2018-10-09T02:28:11.966Z,20.16
2018-10-09T02:29:12.236Z,20.23
2018-10-09T02:30:12.189Z,20.16
2018-10-09T02:31:11.829Z,20.17
2018-10-09T02:32:11.780Z,20.16
2018-10-09T02:33:11.734Z,20.17
2018-10-09T02:34:11.690Z,20.18
2018-10-09T02:35:11.639Z,20.16
2018-10-09T02:36:11.593Z,20.11
2018-10-09T02:37:11.547Z,20.21
2018-10-09T02:38:11.502Z,20.18
2018-10-09T02:39:11.453Z,20.17
2018-10-09T02:40:11.415Z,20.18
2018-10-09T02:41:11.360Z,20.16
2018-10-09T02:42:11.313Z,20.17
2018-10-09T02:43:11.267Z,20.17
2018-10-09T02:44:11.220Z,20.14
2018-10-09T02:45:11.174Z,20.16
2018-10-09T02:46:11.130Z,20.16
2018-10-09T02:47:11.080Z,20.16
2018-10-09T02:48:11.083Z,20.18
2018-10-09T02:49:10.987Z,20.18
2018-10-09T02:50:10.940Z,20.13
2018-10-09T02:51:10.893Z,20.16
2018-10-09T02:52:10.847Z,20.16
2018-10-09T02:53:10.801Z,20.18
2018-10-09T02:54:10.755Z,20.14
2018-10-09T02:55:10.712Z,20.11
2018-10-09T02:56:10.660Z,20.18
2018-10-09T02:57:10.617Z,20.24
2018-10-09T02:58:10.567Z,20.14
2018-10-09T02:59:10.520Z,20.11
2018-10-09T03:00:10.480Z,20.17
2018-10-09T03:01:10.427Z,20.17
2018-10-09T03:02:10.382Z,20.13
2018-10-09T03:03:10.332Z,20.14
2018-10-09T03:04:10.287Z,20.14
2018-10-09T03:05:10.240Z,20.11
2018-10-09T03:06:10.196Z,20.16
2018-10-09T03:07:10.147Z,20.10
2018-10-09T03:08:10.100Z,20.16
2018-10-09T03:09:10.057Z,20.11
2018-10-09T03:10:10.057Z,20.14
2018-10-09T03:11:09.961Z,20.11
2018-10-09T03:12:09.913Z,20.17
2018-10-09T03:13:09.867Z,20.10
2018-10-09T03:14:09.821Z,20.10
2018-10-09T03:15:09.772Z,20.10
2018-10-09T03:16:09.726Z,20.13
2018-10-09T03:17:09.680Z,20.14
2018-10-09T03:18:09.638Z,20.10
2018-10-09T03:19:09.586Z,20.10
2018-10-09T03:20:09.540Z,20.17
2018-10-09T03:21:09.497Z,20.23
2018-10-09T03:22:09.447Z,20.11
2018-10-09T03:23:09.399Z,20.11
2018-10-09T03:24:09.353Z,20.20
2018-10-09T03:25:09.307Z,20.10
2018-10-09T03:26:09.260Z,20.10
2018-10-09T03:27:09.213Z,20.16
2018-10-09T03:28:09.167Z,20.13
2018-10-09T03:29:09.124Z,20.13
2018-10-09T03:30:09.074Z,20.16
2018-10-09T03:31:09.029Z,20.10
2018-10-09T03:32:08.980Z,20.10
2018-10-09T03:33:08.940Z,20.17
2018-10-09T03:34:08.887Z,20.10
2018-10-09T03:35:08.840Z,20.10
2018-10-09T03:36:08.793Z,20.14
2018-10-09T03:37:08.747Z,20.08
2018-10-09T03:38:08.700Z,20.16
2018-10-09T03:39:08.653Z,20.16
2018-10-09T03:40:08.606Z,20.11
2018-10-09T03:41:08.559Z,20.08
2018-10-09T03:42:08.513Z,20.11
2018-10-09T03:43:08.466Z,20.10
2018-10-09T03:44:08.419Z,20.11
2018-10-09T03:45:08.373Z,20.11
2018-10-09T03:46:08.327Z,20.06
2018-10-09T03:47:08.280Z,20.10
2018-10-09T03:48:08.233Z,20.11
2018-10-09T03:49:08.186Z,20.06
2018-10-09T03:50:08.140Z,20.08
2018-10-09T03:51:08.092Z,20.14
2018-10-09T03:52:08.046Z,20.08
2018-10-09T03:53:08.003Z,20.11
2018-10-09T03:54:07.971Z,20.13
2018-10-09T03:55:07.906Z,20.10
2018-10-09T03:56:07.859Z,20.08
2018-10-09T03:57:07.813Z,20.05
2018-10-09T03:58:07.766Z,20.14
2018-10-09T03:59:07.719Z,20.13
2018-10-09T04:00:07.676Z,20.13
2018-10-09T04:01:07.626Z,20.08
2018-10-09T04:02:07.585Z,20.08
2018-10-09T04:03:07.532Z,20.10
2018-10-09T04:04:07.485Z,20.08
2018-10-09T04:05:07.439Z,20.13
2018-10-09T04:06:07.393Z,20.08
2018-10-09T04:07:07.345Z,20.16
2018-10-09T04:08:07.305Z,20.13
2018-10-09T04:09:07.258Z,20.10
2018-10-09T04:10:07.206Z,20.05
2018-10-09T04:11:07.169Z,20.11
2018-10-09T04:12:07.112Z,20.08
2018-10-09T04:13:07.069Z,20.14
2018-10-09T04:14:07.019Z,20.16
2018-10-09T04:15:06.974Z,20.06
2018-10-09T04:16:06.925Z,20.08
2018-10-09T04:17:06.881Z,20.16
2018-10-09T04:18:06.832Z,20.18
2018-10-09T04:19:06.786Z,20.13
2018-10-09T04:20:06.738Z,20.11
2018-10-09T04:21:06.692Z,20.10
2018-10-09T04:22:06.650Z,20.08
2018-10-09T04:23:06.598Z,20.08
2018-10-09T04:24:06.551Z,20.06
2018-10-09T04:25:06.505Z,20.06
2018-10-09T04:26:06.458Z,20.08
2018-10-09T04:27:06.410Z,20.13
2018-10-09T04:28:06.364Z,20.16
2018-10-09T04:29:06.320Z,20.14
2018-10-09T04:30:06.272Z,19.98
2018-10-09T04:31:06.224Z,20.08
2018-10-09T04:32:06.178Z,20.13
2018-10-09T04:33:06.131Z,20.08
2018-10-09T04:34:06.085Z,20.11
2018-10-09T04:35:06.037Z,20.14
2018-10-09T04:36:05.991Z,20.08
2018-10-09T04:37:05.945Z,20.13
2018-10-09T04:38:05.899Z,20.10
2018-10-09T04:39:05.851Z,20.11
2018-10-09T04:40:05.805Z,20.13
2018-10-09T04:41:05.758Z,20.01
2018-10-09T04:42:05.711Z,20.13
2018-10-09T04:43:05.664Z,20.10
2018-10-09T04:44:05.620Z,20.14
2018-10-09T04:45:05.572Z,19.99
2018-10-09T04:46:05.525Z,20.01
2018-10-09T04:47:05.478Z,20.11
2018-10-09T04:48:05.431Z,19.99
2018-10-09T04:49:05.385Z,20.13
2018-10-09T04:50:05.338Z,20.05
2018-10-09T04:51:05.291Z,20.02
2018-10-09T04:52:05.245Z,19.99
2018-10-09T04:53:05.242Z,20.13
2018-10-09T04:54:05.153Z,20.06
2018-10-09T04:55:05.105Z,19.96
2018-10-09T04:56:05.059Z,20.05
2018-10-09T04:57:05.012Z,20.10
2018-10-09T04:58:04.965Z,20.10
2018-10-09T04:59:04.917Z,20.11
2018-10-09T05:00:04.872Z,20.06
2018-10-09T05:01:04.825Z,20.02
2018-10-09T05:02:04.779Z,20.10
2018-10-09T05:03:04.732Z,20.08
2018-10-09T05:04:04.685Z,20.06
2018-10-09T05:05:04.639Z,20.08
2018-10-09T05:06:04.593Z,20.10
2018-10-09T05:07:04.547Z,19.99
2018-10-09T05:08:04.499Z,20.02
2018-10-09T05:09:04.452Z,20.02
2018-10-09T05:10:04.406Z,19.96
2018-10-09T05:11:04.358Z,19.95
2018-10-09T05:12:04.312Z,20.10
2018-10-09T05:13:04.274Z,19.96
2018-10-09T05:14:04.219Z,20.02
2018-10-09T05:15:04.172Z,20.10
2018-10-09T05:16:04.125Z,19.98
2018-10-09T05:17:04.079Z,20.10
2018-10-09T05:18:04.033Z,20.13
2018-10-09T05:19:03.986Z,19.96
2018-10-09T05:20:03.942Z,20.02
2018-10-09T05:21:03.893Z,20.01
2018-10-09T05:22:03.845Z,20.05
2018-10-09T05:23:03.809Z,20.08
2018-10-09T05:24:03.754Z,20.06
2018-10-09T05:25:03.706Z,20.02
2018-10-09T05:26:03.660Z,19.99
2018-10-09T05:27:03.611Z,19.96
2018-10-09T05:28:03.568Z,19.99
2018-10-09T05:29:03.519Z,20.02
2018-10-09T05:30:03.474Z,20.13
2018-10-09T05:31:03.485Z,20.05
2018-10-09T05:32:03.380Z,20.02
2018-10-09T05:33:03.332Z,20.10
2018-10-09T05:34:03.286Z,20.08
2018-10-09T05:35:03.238Z,19.99
2018-10-09T05:36:03.192Z,20.10
2018-10-09T05:37:03.150Z,20.14
2018-10-09T05:38:03.099Z,20.05
2018-10-09T05:39:03.052Z,20.11
2018-10-09T05:40:03.010Z,20.05
2018-10-09T05:41:02.959Z,20.06
2018-10-09T05:42:02.912Z,20.11
2018-10-09T05:43:02.866Z,20.14
2018-10-09T05:44:02.869Z,20.10
2018-10-09T05:45:02.772Z,20.11
2018-10-09T05:46:02.726Z,20.10
2018-10-09T05:47:02.678Z,20.11
2018-10-09T05:48:02.632Z,20.13
2018-10-09T05:49:02.585Z,20.13
2018-10-09T05:50:02.542Z,20.13
2018-10-09T05:51:02.497Z,20.10
2018-10-09T05:52:02.459Z,20.14
2018-10-09T05:53:02.399Z,20.05
2018-10-09T05:54:02.355Z,20.11
2018-10-09T05:55:02.309Z,20.05
2018-10-09T05:56:02.259Z,20.11
2018-10-09T05:57:02.214Z,20.14
2018-10-09T05:58:02.248Z,20.10
2018-10-09T05:59:02.119Z,20.10
2018-10-09T06:00:02.073Z,20.10
2018-10-09T06:01:02.028Z,20.10
2018-10-09T06:02:01.980Z,20.21
2018-10-09T06:03:01.932Z,20.18
2018-10-09T06:04:01.886Z,20.14
2018-10-09T06:05:01.840Z,20.08
2018-10-09T06:06:01.949Z,20.08
2018-10-09T06:07:01.746Z,20.11
2018-10-09T06:08:01.700Z,20.11
2018-10-09T06:09:01.662Z,20.21
2018-10-09T06:10:01.610Z,20.14
2018-10-09T06:11:01.560Z,20.16
2018-10-09T06:12:01.514Z,20.14
2018-10-09T06:13:01.517Z,20.06
2018-10-09T06:14:01.421Z,19.98
2018-10-09T06:15:01.375Z,19.98
2018-10-09T06:16:01.386Z,20.02
2018-10-09T06:17:01.281Z,20.05
2018-10-09T06:18:01.248Z,19.96
2018-10-09T06:19:01.187Z,19.95
2018-10-09T06:20:01.140Z,20.02
2018-10-09T06:21:01.096Z,20.01
2018-10-09T06:22:01.114Z,19.98
2018-10-09T06:23:01.000Z,19.96
2018-10-09T06:24:00.953Z,19.95
2018-10-09T06:25:00.907Z,19.95
2018-10-09T06:26:00.861Z,19.96
2018-10-09T06:27:00.814Z,19.86
2018-10-09T06:28:00.860Z,19.92
2018-10-09T06:29:00.719Z,19.94
2018-10-09T06:30:00.672Z,19.88
2018-10-09T06:31:00.628Z,20.01
2018-10-09T06:32:00.578Z,19.99
2018-10-09T06:33:00.531Z,20.11
2018-10-09T06:34:00.508Z,20.11
2018-10-09T06:35:00.437Z,20.10
2018-10-09T06:36:00.390Z,20.14
2018-10-09T06:37:00.346Z,20.17
2018-10-09T06:38:00.297Z,20.20
2018-10-09T06:39:00.249Z,20.20
2018-10-09T06:40:00.203Z,20.23
2018-10-09T06:41:00.156Z,20.24
2018-10-09T06:42:00.109Z,20.31
2018-10-09T06:43:00.062Z,20.23
2018-10-09T06:44:00.015Z,20.20
2018-10-09T06:44:59.968Z,20.21
2018-10-09T06:45:59.924Z,20.21
2018-10-09T06:46:59.878Z,20.18
2018-10-09T06:47:59.829Z,20.18
2018-10-09T06:48:59.782Z,20.21
2018-10-09T06:49:59.787Z,20.17
2018-10-09T06:50:59.686Z,20.24
2018-10-09T06:51:59.639Z,20.20
2018-10-09T06:52:59.592Z,20.26
2018-10-09T06:53:59.884Z,20.29
2018-10-09T06:54:59.600Z,20.32
2018-10-09T06:55:59.451Z,20.32
2018-10-09T06:56:59.404Z,20.24
2018-10-09T06:57:59.359Z,20.26
2018-10-09T06:58:59.311Z,20.41
2018-10-09T06:59:59.280Z,20.41
2018-10-09T07:00:59.217Z,20.38
2018-10-09T07:01:59.172Z,20.42
2018-10-09T07:02:59.124Z,20.38
2018-10-09T07:03:59.077Z,20.41
2018-10-09T07:04:59.031Z,20.41
2018-10-09T07:05:58.986Z,20.43
2018-10-09T07:06:58.941Z,20.31
2018-10-09T07:07:58.890Z,20.28
2018-10-09T07:08:58.843Z,20.23
2018-10-09T07:09:58.797Z,20.24
2018-10-09T07:10:58.756Z,20.21
2018-10-09T07:11:58.702Z,20.14
2018-10-09T07:12:58.655Z,20.20
2018-10-09T07:13:58.653Z,20.11
2018-10-09T07:14:58.562Z,20.16
2018-10-09T07:15:58.514Z,20.20
2018-10-09T07:16:58.529Z,20.21
2018-10-09T07:17:58.421Z,20.20
2018-10-09T07:18:58.374Z,20.18
2018-10-09T07:19:58.327Z,20.20
2018-10-09T07:20:58.281Z,20.14
2018-10-09T07:21:58.233Z,20.18
2018-10-09T07:22:58.186Z,20.32
2018-10-09T07:23:58.139Z,20.26
2018-10-09T07:24:58.095Z,20.28
2018-10-09T07:25:58.046Z,20.38
2018-10-09T07:26:57.998Z,20.33
2018-10-09T07:27:58.020Z,20.38
2018-10-09T07:28:57.905Z,20.43
2018-10-09T07:29:57.859Z,20.42
2018-10-09T07:30:57.811Z,20.38
2018-10-09T07:31:57.764Z,20.36
2018-10-09T07:32:57.722Z,20.38
2018-10-09T07:33:57.671Z,20.36
2018-10-09T07:34:57.624Z,20.33
2018-10-09T07:35:57.577Z,20.28
2018-10-09T07:36:57.531Z,20.32
2018-10-09T07:37:57.485Z,20.23
2018-10-09T07:38:57.435Z,20.29
2018-10-09T07:39:57.391Z,20.20
2018-10-09T07:40:57.344Z,20.24
2018-10-09T07:41:57.299Z,20.21
2018-10-09T07:42:57.249Z,20.26
2018-10-09T07:43:57.258Z,20.29
2018-10-09T07:44:57.157Z,20.31
2018-10-09T07:45:57.110Z,20.26
2018-10-09T07:46:57.063Z,20.28
2018-10-09T07:47:57.016Z,20.26
2018-10-09T07:48:56.969Z,20.36
2018-10-09T07:49:56.923Z,20.38
2018-10-09T07:50:56.876Z,20.35
2018-10-09T07:51:56.831Z,20.35
2018-10-09T07:52:56.861Z,20.41
2018-10-09T07:53:56.737Z,20.43
2018-10-09T07:54:56.690Z,20.41
2018-10-09T07:55:56.643Z,20.42
2018-10-09T07:56:56.623Z,20.39
2018-10-09T07:57:56.550Z,20.28
2018-10-09T07:58:56.503Z,20.29
2018-10-09T07:59:56.460Z,20.31
2018-10-09T08:00:56.410Z,20.32
2018-10-09T08:01:56.363Z,20.33
2018-10-09T08:02:56.316Z,20.35
2018-10-09T08:03:56.270Z,20.36
2018-10-09T08:04:56.224Z,20.38
2018-10-09T08:05:56.177Z,20.32
2018-10-09T08:06:56.133Z,20.28
2018-10-09T08:07:56.083Z,20.33
2018-10-09T08:08:56.036Z,20.24
2018-10-09T08:09:55.989Z,20.31
2018-10-09T08:10:56.006Z,20.32
2018-10-09T08:11:55.896Z,20.28
2018-10-09T08:12:55.849Z,20.26
2018-10-09T08:13:55.803Z,20.29
2018-10-09T08:14:55.755Z,20.29
2018-10-09T08:15:55.714Z,20.28
2018-10-09T08:16:55.661Z,20.36
2018-10-09T08:17:55.615Z,20.33
2018-10-09T08:18:55.572Z,20.43
2018-10-09T08:19:55.522Z,20.48
2018-10-09T08:20:55.476Z,20.50
2018-10-09T08:21:55.430Z,20.36
2018-10-09T08:22:55.437Z,20.39
2018-10-09T08:23:55.340Z,20.38
2018-10-09T08:24:55.289Z,20.42
2018-10-09T08:25:55.242Z,20.36
2018-10-09T08:26:55.195Z,20.43
2018-10-09T08:27:55.156Z,20.48
2018-10-09T08:28:55.102Z,20.43
2018-10-09T08:29:55.157Z,20.48
2018-10-09T08:30:55.010Z,20.43
2018-10-09T08:31:54.969Z,20.41
2018-10-09T08:32:54.916Z,20.43
2018-10-09T08:33:54.869Z,20.42
2018-10-09T08:34:54.821Z,20.51
2018-10-09T08:35:54.776Z,20.52
2018-10-09T08:36:54.732Z,20.54
2018-10-09T08:37:54.683Z,20.50
2018-10-09T08:38:54.636Z,20.48
2018-10-09T08:39:54.589Z,20.52
2018-10-09T08:40:54.542Z,20.48
2018-10-09T08:41:54.497Z,20.52
2018-10-09T08:42:54.449Z,20.51
2018-10-09T08:43:54.402Z,20.47
2018-10-09T08:44:54.406Z,20.47
2018-10-09T08:45:54.310Z,20.57
2018-10-09T08:46:54.275Z,20.54
2018-10-09T08:47:54.217Z,20.54
2018-10-09T08:48:54.171Z,20.54
2018-10-09T08:49:54.123Z,20.55
2018-10-09T08:50:54.079Z,20.55
2018-10-09T08:51:54.092Z,20.54
2018-10-09T08:52:53.983Z,20.57
2018-10-09T08:53:54.038Z,20.59
2018-10-09T08:54:53.891Z,20.55
2018-10-09T08:55:53.844Z,20.58
2018-10-09T08:56:53.798Z,20.52
2018-10-09T08:57:53.751Z,20.55
2018-10-09T08:58:53.704Z,20.55
2018-10-09T08:59:53.661Z,20.58
2018-10-09T09:00:53.633Z,20.57
2018-10-09T09:01:53.579Z,20.58
2018-10-09T09:02:53.518Z,20.57
2018-10-09T09:03:53.471Z,20.61
2018-10-09T09:04:53.426Z,20.58
2018-10-09T09:05:53.379Z,20.57
2018-10-09T09:06:53.331Z,20.57
2018-10-09T09:07:53.285Z,20.50
2018-10-09T09:08:53.239Z,20.54
2018-10-09T09:09:53.193Z,20.55
2018-10-09T09:10:53.146Z,20.50
2018-10-09T09:11:53.099Z,20.50
2018-10-09T09:12:53.052Z,20.51
2018-10-09T09:13:53.033Z,20.51
2018-10-09T09:14:52.959Z,20.52
2018-10-09T09:15:52.912Z,20.51
2018-10-09T09:16:52.867Z,20.51
2018-10-09T09:17:52.820Z,20.54
2018-10-09T09:18:52.773Z,20.55
2018-10-09T09:19:52.726Z,20.50
2018-10-09T09:20:52.711Z,20.54
2018-10-09T09:21:52.634Z,20.51
2018-10-09T09:22:52.585Z,20.54
2018-10-09T09:23:52.540Z,20.43
2018-10-09T09:24:52.503Z,20.54
2018-10-09T09:25:52.448Z,20.48
2018-10-09T09:26:52.453Z,20.55
2018-10-09T09:27:52.392Z,20.50
2018-10-09T09:28:52.307Z,20.43
2018-10-09T09:29:52.260Z,20.48
2018-10-09T09:30:52.214Z,20.55
2018-10-09T09:31:52.166Z,20.52
2018-10-09T09:32:52.119Z,20.57
2018-10-09T09:33:52.075Z,20.55
2018-10-09T09:34:52.027Z,20.57
2018-10-09T09:35:51.984Z,20.57
2018-10-09T09:36:51.934Z,20.57
2018-10-09T09:37:51.890Z,20.55
2018-10-09T09:38:51.892Z,20.57
2018-10-09T09:39:51.794Z,20.54
2018-10-09T09:40:51.748Z,20.57
2018-10-09T09:41:51.701Z,20.57
2018-10-09T09:42:51.655Z,20.59
2018-10-09T09:43:51.607Z,20.62
2018-10-09T09:44:51.561Z,20.62
2018-10-09T09:45:51.595Z,20.69
2018-10-09T09:46:51.467Z,20.67
2018-10-09T09:47:51.421Z,20.64
2018-10-09T09:48:51.374Z,20.67
2018-10-09T09:49:51.328Z,20.76
2018-10-09T09:50:51.330Z,20.62
2018-10-09T09:51:51.238Z,20.74
2018-10-09T09:52:51.188Z,20.69
2018-10-09T09:53:51.142Z,20.67
2018-10-09T09:54:51.099Z,20.72
2018-10-09T09:55:51.048Z,20.74
2018-10-09T09:56:51.001Z,20.72
2018-10-09T09:57:51.031Z,20.70
2018-10-09T09:58:51.165Z,20.67
2018-10-09T09:59:50.862Z,20.67
2018-10-09T10:00:50.815Z,20.72
2018-10-09T10:01:50.769Z,20.70
2018-10-09T10:02:50.722Z,20.70
2018-10-09T10:03:50.682Z,20.69
2018-10-09T10:04:50.629Z,20.62
2018-10-09T10:05:50.583Z,20.61
2018-10-09T10:06:50.535Z,20.64
2018-10-09T10:07:50.489Z,20.76
2018-10-09T10:08:50.452Z,20.76
2018-10-09T10:09:50.398Z,20.79
2018-10-09T10:10:50.349Z,20.73
2018-10-09T10:11:50.421Z,20.74
2018-10-09T10:12:50.257Z,20.77
2018-10-09T10:13:50.210Z,20.77
2018-10-09T10:14:50.163Z,20.80
2018-10-09T10:15:50.230Z,20.74
2018-10-09T10:16:50.075Z,20.79
2018-10-09T10:17:50.032Z,20.77
2018-10-09T10:18:49.979Z,20.73
2018-10-09T10:19:49.931Z,20.77
2018-10-09T10:20:49.886Z,20.76
2018-10-09T10:21:49.861Z,20.77
2018-10-09T10:22:49.791Z,20.70
2018-10-09T10:23:49.746Z,20.69
2018-10-09T10:24:49.699Z,20.69
2018-10-09T10:25:49.654Z,20.74
2018-10-09T10:26:49.606Z,20.74
2018-10-09T10:27:49.559Z,20.73
2018-10-09T10:28:49.513Z,20.76
2018-10-09T10:29:49.466Z,20.73
2018-10-09T10:30:49.419Z,20.76
2018-10-09T10:31:49.373Z,20.70
2018-10-09T10:32:49.327Z,20.80
2018-10-09T10:33:49.281Z,20.74
2018-10-09T10:34:49.234Z,20.74
2018-10-09T10:35:49.273Z,20.73
2018-10-09T10:36:49.186Z,20.76
2018-10-09T10:37:49.095Z,20.80
2018-10-09T10:38:49.049Z,20.80
2018-10-09T10:39:49.001Z,20.72
2018-10-09T10:40:48.955Z,20.76
2018-10-09T10:41:48.950Z,20.74
2018-10-09T10:42:48.862Z,20.80
2018-10-09T10:43:48.814Z,20.79
2018-10-09T10:44:48.769Z,20.66
2018-10-09T10:45:48.722Z,20.73
2018-10-09T10:46:48.675Z,20.64
2018-10-09T10:47:48.631Z,20.74
2018-10-09T10:48:48.589Z,20.70
2018-10-09T10:49:48.537Z,20.76
2018-10-09T10:50:48.490Z,20.74
2018-10-09T10:51:48.443Z,20.70
2018-10-09T10:52:48.397Z,20.76
2018-10-09T10:53:48.351Z,20.69
2018-10-09T10:54:48.324Z,20.73
2018-10-09T10:55:48.257Z,20.77
2018-10-09T10:56:48.226Z,20.72
2018-10-09T10:57:48.172Z,20.79
2018-10-09T10:58:48.121Z,20.72
2018-10-09T10:59:48.071Z,20.79
2018-10-09T11:00:48.030Z,20.77
2018-10-09T11:01:48.028Z,20.79
2018-10-09T11:02:48.002Z,20.77
2018-10-09T11:03:47.885Z,20.82
2018-10-09T11:04:47.839Z,20.79
2018-10-09T11:05:47.793Z,20.73
2018-10-09T11:06:47.746Z,20.82
2018-10-09T11:07:47.705Z,20.79
2018-10-09T11:08:47.665Z,20.74
2018-10-09T11:09:47.657Z,20.73
2018-10-09T11:10:47.560Z,20.69
2018-10-09T11:11:47.516Z,20.79
2018-10-09T11:12:47.468Z,20.69
2018-10-09T11:13:47.425Z,20.77
2018-10-09T11:14:47.480Z,20.80
2018-10-09T11:15:47.328Z,20.82
2018-10-09T11:16:47.282Z,20.72
2018-10-09T11:17:47.243Z,20.77
2018-10-09T11:18:47.190Z,20.77
2018-10-09T11:19:47.144Z,20.77
2018-10-09T11:20:47.096Z,20.76
2018-10-09T11:21:47.053Z,20.77
2018-10-09T11:22:47.003Z,20.79
2018-10-09T11:23:46.958Z,20.79
2018-10-09T11:24:46.913Z,20.82
2018-10-09T11:25:46.864Z,20.77
2018-10-09T11:26:46.816Z,20.79
2018-10-09T11:27:46.771Z,20.70
2018-10-09T11:28:46.725Z,20.77
2018-10-09T11:29:46.679Z,20.80
2018-10-09T11:30:46.635Z,20.82
2018-10-09T11:31:46.585Z,20.73
2018-10-09T11:32:46.539Z,20.74
2018-10-09T11:33:46.543Z,20.72
2018-10-09T11:34:46.446Z,20.84
2018-10-09T11:35:46.398Z,20.80
2018-10-09T11:36:46.354Z,20.79
2018-10-09T11:37:46.307Z,20.87
2018-10-09T11:38:46.261Z,20.84
2018-10-09T11:39:46.215Z,20.80
2018-10-09T11:40:46.167Z,20.82
2018-10-09T11:41:46.121Z,20.79
2018-10-09T11:42:46.123Z,20.80
2018-10-09T11:43:46.027Z,20.79
2018-10-09T11:44:45.981Z,20.80
2018-10-09T11:45:45.937Z,20.79
2018-10-09T11:46:45.938Z,20.85
2018-10-09T11:47:45.842Z,20.80
2018-10-09T11:48:45.796Z,20.82
2018-10-09T11:49:45.750Z,20.92
2018-10-09T11:50:45.701Z,20.82
2018-10-09T11:51:45.656Z,20.80
2018-10-09T11:52:45.611Z,20.84
2018-10-09T11:53:45.564Z,20.85
2018-10-09T11:54:45.520Z,20.89
2018-10-09T11:55:45.470Z,20.89
2018-10-09T11:56:45.424Z,20.82
2018-10-09T11:57:45.377Z,20.80
2018-10-09T11:58:45.431Z,20.89
2018-10-09T11:59:45.285Z,20.89
2018-10-09T12:00:45.238Z,20.89
2018-10-09T12:01:45.192Z,20.97
2018-10-09T12:02:45.189Z,20.84
2018-10-09T12:03:45.098Z,20.94
2018-10-09T12:04:45.053Z,20.89
2018-10-09T12:05:45.044Z,20.97
2018-10-09T12:06:44.961Z,20.97
2018-10-09T12:07:44.913Z,20.87
2018-10-09T12:08:44.867Z,20.91
2018-10-09T12:09:44.821Z,20.85
2018-10-09T12:10:44.773Z,20.85
2018-10-09T12:11:44.728Z,20.88
2018-10-09T12:12:44.681Z,20.95
2018-10-09T12:13:44.635Z,20.94
2018-10-09T12:14:44.588Z,20.84
2018-10-09T12:15:44.602Z,20.94
2018-10-09T12:16:44.498Z,20.95
2018-10-09T12:17:44.449Z,20.87
2018-10-09T12:18:44.404Z,20.85
2018-10-09T12:19:44.356Z,20.89
2018-10-09T12:20:44.309Z,20.82
2018-10-09T12:21:44.264Z,20.88
2018-10-09T12:22:44.218Z,20.80
2018-10-09T12:23:44.169Z,20.80
2018-10-09T12:24:44.123Z,20.84
2018-10-09T12:25:44.077Z,20.85
2018-10-09T12:26:44.032Z,20.80
2018-10-09T12:27:43.984Z,20.82
2018-10-09T12:28:43.940Z,20.80
2018-10-09T12:29:43.892Z,20.87
2018-10-09T12:30:43.845Z,20.85
2018-10-09T12:31:43.798Z,20.87
2018-10-09T12:32:43.809Z,20.84
2018-10-09T12:33:43.705Z,20.84
2018-10-09T12:34:43.659Z,20.85
2018-10-09T12:35:43.613Z,20.88
2018-10-09T12:36:43.570Z,20.84
2018-10-09T12:37:43.522Z,20.84
2018-10-09T12:38:43.474Z,20.87
2018-10-09T12:39:43.427Z,20.85
2018-10-09T12:40:43.381Z,20.82
2018-10-09T12:41:43.335Z,20.79
2018-10-09T12:42:43.391Z,20.82
2018-10-09T12:43:43.275Z,20.79
2018-10-09T12:44:43.196Z,20.80
2018-10-09T12:45:43.148Z,20.84
2018-10-09T12:46:43.109Z,20.84
2018-10-09T12:47:43.056Z,20.84
2018-10-09T12:48:43.010Z,20.82
2018-10-09T12:49:42.964Z,20.84
2018-10-09T12:50:42.916Z,20.84
2018-10-09T12:51:42.870Z,20.84